createdAt,value
2022-09-14T00:01:14.306Z,18.87
2022-09-14T00:03:40.258Z,18.87
2022-09-14T00:06:09.245Z,18.97
2022-09-14T00:08:35.892Z,19.04
2022-09-14T00:11:11.933Z,19.04
2022-09-14T00:13:40.819Z,19.02
2022-09-14T00:16:12.198Z,19.02
2022-09-14T00:18:38.689Z,19.04
2022-09-14T00:21:07.556Z,19.04
2022-09-14T00:23:39.096Z,18.88
2022-09-14T00:26:07.694Z,18.85
2022-09-14T00:28:43.838Z,18.77
2022-09-14T00:31:11.602Z,18.99
2022-09-14T00:33:38.563Z,19.02
2022-09-14T00:36:10.733Z,19.04
2022-09-14T00:38:37.778Z,19.09
2022-09-14T00:41:06.504Z,19.08
2022-09-14T00:43:33.643Z,19.08
2022-09-14T00:46:02.539Z,19.11
2022-09-14T00:48:30.093Z,19.04
2022-09-14T00:50:56.947Z,19.05
2022-09-14T00:53:23.682Z,19.01
2022-09-14T00:55:52.013Z,19.06
2022-09-14T00:58:18.398Z,19.05
2022-09-14T01:00:44.851Z,18.97
2022-09-14T01:03:11.317Z,18.85
2022-09-14T01:05:44.997Z,18.77
2022-09-14T01:08:25.171Z,18.51
2022-09-14T01:11:22.252Z,18.54
2022-09-14T01:14:03.563Z,18.48
2022-09-14T01:17:02.464Z,18.43
2022-09-14T01:19:47.612Z,18.53
2022-09-14T01:22:23.600Z,18.51
2022-09-14T01:24:56.710Z,18.48
2022-09-14T01:27:34.734Z,18.48
2022-09-14T01:30:22.902Z,18.57
2022-09-14T01:33:22.787Z,18.57
2022-09-14T01:35:59.841Z,18.68
2022-09-14T01:38:33.179Z,18.87
2022-09-14T01:41:03.985Z,18.87
2022-09-14T01:43:38.108Z,18.91
2022-09-14T01:46:09.853Z,19.08
2022-09-14T01:48:45.255Z,19.04
2022-09-14T01:51:15.284Z,19.08
2022-09-14T01:53:46.789Z,18.97
2022-09-14T01:56:22.999Z,19.04
2022-09-14T01:59:03.889Z,19.14
2022-09-14T02:01:35.935Z,19.02
2022-09-14T02:04:07.151Z,18.97
2022-09-14T02:06:37.572Z,18.83
2022-09-14T02:09:06.703Z,18.67
2022-09-14T02:11:33.125Z,18.67
2022-09-14T02:13:59.569Z,18.53
2022-09-14T02:16:26.317Z,18.46
2022-09-14T02:18:53.085Z,18.43
2022-09-14T02:21:27.426Z,18.33
2022-09-14T02:23:54.103Z,18.32
2022-09-14T02:26:22.959Z,18.34
2022-09-14T02:28:49.896Z,18.29
2022-09-14T02:31:37.012Z,18.29
2022-09-14T02:34:27.909Z,18.37
2022-09-14T02:37:04.072Z,18.39
2022-09-14T02:39:55.158Z,18.39
2022-09-14T02:42:39.152Z,18.54
2022-09-14T02:45:14.826Z,18.46
2022-09-14T02:48:13.865Z,18.57
2022-09-14T02:50:54.153Z,18.46
2022-09-14T02:53:37.018Z,18.57
2022-09-14T02:56:04.881Z,18.63
2022-09-14T02:58:43.315Z,18.68
2022-09-14T03:01:13.324Z,18.73
2022-09-14T03:03:40.372Z,18.81
2022-09-14T03:06:07.048Z,18.87
2022-09-14T03:08:34.210Z,18.83
2022-09-14T03:11:00.730Z,18.85
2022-09-14T03:13:27.184Z,18.80
2022-09-14T03:15:53.621Z,18.94
2022-09-14T03:18:20.434Z,18.81
2022-09-14T03:20:46.896Z,18.77
2022-09-14T03:23:14.077Z,18.84
2022-09-14T03:25:43.877Z,18.89
2022-09-14T03:28:12.079Z,18.87
2022-09-14T03:30:38.707Z,18.87
2022-09-14T03:33:05.516Z,18.89
2022-09-14T03:35:32.387Z,18.81
2022-09-14T03:37:59.614Z,18.70
2022-09-14T03:40:27.250Z,18.75
2022-09-14T03:42:53.846Z,18.73
2022-09-14T03:45:21.592Z,18.81
2022-09-14T03:47:49.279Z,18.85
2022-09-14T03:50:17.351Z,18.84
2022-09-14T03:52:43.880Z,18.78
2022-09-14T03:55:10.821Z,18.81
2022-09-14T03:57:37.617Z,18.83
2022-09-14T04:00:05.674Z,18.66
2022-09-14T04:02:32.179Z,18.53
2022-09-14T04:04:58.919Z,18.48
2022-09-14T04:07:25.475Z,18.44
2022-09-14T04:09:51.901Z,18.41
2022-09-14T04:12:18.349Z,18.32
2022-09-14T04:14:44.780Z,18.37
2022-09-14T04:17:11.152Z,18.41
2022-09-14T04:19:38.511Z,18.40
2022-09-14T04:22:05.322Z,18.41
2022-09-14T04:24:31.748Z,18.40
2022-09-14T04:26:58.556Z,18.36
2022-09-14T04:29:25.021Z,18.36
2022-09-14T04:31:51.560Z,18.40
2022-09-14T04:34:17.964Z,18.40
2022-09-14T04:36:44.543Z,18.34
2022-09-14T04:39:13.535Z,18.37
2022-09-14T04:41:40.328Z,18.37
2022-09-14T04:44:06.763Z,18.43
2022-09-14T04:46:35.732Z,18.40
2022-09-14T04:49:02.208Z,18.34
2022-09-14T04:51:30.789Z,18.48
2022-09-14T04:53:59.254Z,18.39
2022-09-14T04:56:27.294Z,18.46
2022-09-14T05:01:38.431Z,18.57
2022-09-14T05:04:06.270Z,18.46
2022-09-14T05:06:34.887Z,18.43
2022-09-14T05:09:04.396Z,18.50
2022-09-14T05:11:33.790Z,18.54
2022-09-14T05:14:01.809Z,18.51
2022-09-14T05:16:30.783Z,18.48
2022-09-14T05:19:01.246Z,18.48
2022-09-14T05:21:29.355Z,18.50
2022-09-14T05:24:01.119Z,18.57
2022-09-14T05:26:29.741Z,18.58
2022-09-14T05:28:58.434Z,18.66
2022-09-14T05:31:26.417Z,18.64
2022-09-14T05:33:53.639Z,18.67
2022-09-14T05:36:20.499Z,18.56
2022-09-14T05:38:47.119Z,18.39
2022-09-14T05:41:15.121Z,18.39
2022-09-14T05:43:42.302Z,18.43
2022-09-14T05:46:12.921Z,18.44
2022-09-14T05:48:40.273Z,18.40
2022-09-14T05:51:12.281Z,18.34
2022-09-14T05:53:38.764Z,18.25
2022-09-14T05:56:07.886Z,18.09
2022-09-14T05:58:35.606Z,18.13
2022-09-14T06:01:13.522Z,18.05
2022-09-14T06:03:40.564Z,17.96
2022-09-14T06:06:08.742Z,17.94
2022-09-14T06:08:36.170Z,17.94
2022-09-14T06:11:08.041Z,17.82
2022-09-14T06:13:34.882Z,17.92
2022-09-14T06:16:10.406Z,17.82
2022-09-14T06:18:38.129Z,17.86
2022-09-14T06:21:04.929Z,17.75
2022-09-14T06:23:32.410Z,17.79
2022-09-14T06:26:01.886Z,17.59
2022-09-14T06:28:29.480Z,17.50
2022-09-14T06:32:35.953Z,17.31
2022-09-14T06:35:03.566Z,17.19
2022-09-14T06:37:29.950Z,17.33
2022-09-14T06:39:56.370Z,17.33
2022-09-14T06:42:22.740Z,17.19
2022-09-14T06:44:49.126Z,17.17
2022-09-14T06:47:15.603Z,17.16
2022-09-14T06:49:42.001Z,17.10
2022-09-14T06:52:08.429Z,17.14
2022-09-14T06:54:34.975Z,17.21
2022-09-14T06:57:01.335Z,17.29
2022-09-14T06:59:27.940Z,17.38
2022-09-14T07:01:54.356Z,17.30
2022-09-14T07:04:21.548Z,17.41
2022-09-14T07:06:49.856Z,17.46
2022-09-14T07:09:18.029Z,17.43
2022-09-14T07:11:44.982Z,17.44
2022-09-14T07:14:12.070Z,17.43
2022-09-14T07:16:39.841Z,17.31
2022-09-14T07:19:11.143Z,17.33
2022-09-14T07:21:37.830Z,17.29
2022-09-14T07:24:04.334Z,17.26
2022-09-14T07:26:33.982Z,17.31
2022-09-14T07:29:03.706Z,17.44
2022-09-14T07:31:42.612Z,17.41
2022-09-14T07:34:09.468Z,17.46
2022-09-14T07:36:37.176Z,17.46
2022-09-14T07:39:05.864Z,17.48
2022-09-14T07:41:34.247Z,17.57
2022-09-14T07:44:03.542Z,17.50
2022-09-14T07:46:33.097Z,17.59
2022-09-14T07:49:02.267Z,17.62
2022-09-14T07:51:30.283Z,17.62
2022-09-14T07:53:57.503Z,17.44
2022-09-14T07:56:25.658Z,17.33
2022-09-14T07:59:11.387Z,17.48
2022-09-14T08:01:44.242Z,17.48
2022-09-14T08:04:11.062Z,17.50
2022-09-14T08:06:37.636Z,17.54
2022-09-14T08:09:10.925Z,17.53
2022-09-14T08:11:38.337Z,17.48
2022-09-14T08:14:10.191Z,17.47
2022-09-14T08:16:38.669Z,17.51
2022-09-14T08:19:10.694Z,17.54
2022-09-14T08:21:37.287Z,17.61
2022-09-14T08:24:04.299Z,17.65
2022-09-14T08:26:31.456Z,17.62
2022-09-14T08:29:00.474Z,17.54
2022-09-14T08:31:28.673Z,17.57
2022-09-14T08:34:00.769Z,17.54
2022-09-14T08:36:30.056Z,17.50
2022-09-14T08:38:56.871Z,17.43
2022-09-14T08:41:40.161Z,17.48
2022-09-14T08:44:20.896Z,17.47
2022-09-14T08:46:49.566Z,17.46
2022-09-14T08:49:34.085Z,17.50
2022-09-14T08:52:00.504Z,17.51
2022-09-14T08:54:26.972Z,17.50
2022-09-14T08:57:03.224Z,17.50
2022-09-14T09:00:00.811Z,17.43
2022-09-14T09:02:33.123Z,17.33
2022-09-14T09:05:24.899Z,17.23
2022-09-14T09:08:12.262Z,17.10
2022-09-14T09:10:40.876Z,17.09
2022-09-14T09:13:12.770Z,17.09
2022-09-14T09:15:49.972Z,17.24
2022-09-14T09:18:41.036Z,17.07
2022-09-14T09:21:13.926Z,17.30
2022-09-14T09:23:41.344Z,17.48
2022-09-14T09:26:26.547Z,17.48
2022-09-14T09:28:58.037Z,17.44
2022-09-14T09:31:29.749Z,17.41
2022-09-14T09:33:56.224Z,17.54
2022-09-14T09:36:22.708Z,17.38
2022-09-14T09:38:49.189Z,17.44
2022-09-14T09:41:24.688Z,17.55
2022-09-14T09:44:10.556Z,17.54
2022-09-14T09:46:59.127Z,17.72
2022-09-14T09:49:46.531Z,17.74
2022-09-14T09:52:15.521Z,17.71
2022-09-14T09:54:48.719Z,17.65
2022-09-14T09:57:31.532Z,17.51
2022-09-14T10:00:26.068Z,17.38
2022-09-14T10:02:53.999Z,17.50
2022-09-14T10:05:28.890Z,17.65
2022-09-14T10:08:04.483Z,17.72
2022-09-14T10:10:35.667Z,17.81
2022-09-14T10:13:05.128Z,17.75
2022-09-14T10:15:33.732Z,17.68
2022-09-14T10:18:07.539Z,17.58
2022-09-14T10:20:34.365Z,17.65
2022-09-14T10:23:19.261Z,17.72
2022-09-14T10:25:54.075Z,17.78
2022-09-14T10:28:29.160Z,17.71
2022-09-14T10:31:02.217Z,17.68
2022-09-14T10:33:30.177Z,17.59
2022-09-14T10:35:56.562Z,17.51
2022-09-14T10:38:39.639Z,17.59
2022-09-14T10:41:31.225Z,17.59
2022-09-14T10:44:27.813Z,17.65
2022-09-14T10:47:10.600Z,17.77
2022-09-14T10:49:59.105Z,17.69
2022-09-14T10:52:38.348Z,17.78
2022-09-14T10:55:39.993Z,17.88
2022-09-14T10:58:44.153Z,17.91
2022-09-14T11:01:13.786Z,17.91
2022-09-14T11:03:46.013Z,17.68
2022-09-14T11:06:31.519Z,17.55
2022-09-14T11:09:06.785Z,17.53
2022-09-14T11:11:47.766Z,17.53
2022-09-14T11:14:33.262Z,17.62
2022-09-14T11:17:12.826Z,17.57
2022-09-14T11:20:04.377Z,17.59
2022-09-14T11:23:02.528Z,17.92
2022-09-14T11:25:56.449Z,17.98
2022-09-14T11:28:33.238Z,18.16
2022-09-14T11:31:12.008Z,18.27
2022-09-14T11:33:51.475Z,18.25
2022-09-14T11:36:30.232Z,18.22
2022-09-14T11:39:07.213Z,18.13
2022-09-14T11:42:01.208Z,18.26
2022-09-14T11:44:39.398Z,18.57
2022-09-14T11:47:18.079Z,18.88
2022-09-14T11:50:06.444Z,19.16
2022-09-14T11:52:33.931Z,19.31
2022-09-14T11:55:02.042Z,19.47
2022-09-14T11:57:33.655Z,19.74
2022-09-14T12:00:25.697Z,19.88
2022-09-14T12:03:13.141Z,19.81
2022-09-14T12:05:40.691Z,19.81
2022-09-14T12:08:35.956Z,19.90
2022-09-14T12:11:26.381Z,20.14
2022-09-14T12:14:30.374Z,20.29
2022-09-14T12:20:32.077Z,20.17
2022-09-14T12:23:13.988Z,20.14
2022-09-14T12:25:55.452Z,19.85
2022-09-14T12:28:40.257Z,19.78
2022-09-14T12:31:12.742Z,19.38
2022-09-14T12:33:41.591Z,19.11
2022-09-14T12:36:20.945Z,19.31
2022-09-14T12:38:50.316Z,19.41
2022-09-14T12:41:19.870Z,19.49
2022-09-14T12:43:49.318Z,19.28
2022-09-14T12:46:21.896Z,19.04
2022-09-14T12:48:48.442Z,19.15
2022-09-14T12:51:26.837Z,19.38
2022-09-14T12:54:08.616Z,19.32
2022-09-14T12:56:47.040Z,19.32
2022-09-14T12:59:35.903Z,19.57
2022-09-14T13:02:23.974Z,19.38
2022-09-14T13:04:55.928Z,19.25
2022-09-14T13:07:23.848Z,19.32
2022-09-14T13:09:54.875Z,19.20
2022-09-14T13:12:33.906Z,19.20
2022-09-14T13:15:06.804Z,19.11
2022-09-14T13:17:33.428Z,19.34
2022-09-14T13:20:05.297Z,19.43
2022-09-14T13:22:33.216Z,19.49
2022-09-14T13:25:03.629Z,19.11
2022-09-14T13:27:35.992Z,19.09
2022-09-14T13:30:07.920Z,19.14
2022-09-14T13:32:36.717Z,18.91
2022-09-14T13:35:06.802Z,18.57
2022-09-14T13:37:33.448Z,18.57
2022-09-14T13:40:00.065Z,18.44
2022-09-14T13:42:27.289Z,18.17
2022-09-14T13:44:54.105Z,17.69
2022-09-14T13:47:23.467Z,17.50
2022-09-14T13:49:52.910Z,17.51
2022-09-14T13:52:49.698Z,17.48
2022-09-14T13:55:23.806Z,17.07
2022-09-14T13:58:08.875Z,16.93
2022-09-14T14:00:56.058Z,17.17
2022-09-14T14:03:39.561Z,17.27
2022-09-14T14:06:27.250Z,17.24
2022-09-14T14:09:06.846Z,17.33
2022-09-14T14:11:41.745Z,17.44
2022-09-14T14:14:30.152Z,17.50
2022-09-14T14:17:13.194Z,17.29
2022-09-14T14:19:43.761Z,17.37
2022-09-14T14:22:18.427Z,17.30
2022-09-14T14:25:12.315Z,17.38
2022-09-14T14:27:37.589Z,17.26
2022-09-14T14:30:30.974Z,17.29
2022-09-14T14:32:59.245Z,17.19
2022-09-14T14:35:29.490Z,17.04
2022-09-14T14:37:56.989Z,16.96
2022-09-14T14:40:27.147Z,16.89
2022-09-14T14:42:54.884Z,17.21
2022-09-14T14:45:26.295Z,17.13
2022-09-14T14:47:54.815Z,17.19
2022-09-14T14:50:27.449Z,17.14
2022-09-14T14:52:54.474Z,17.24
2022-09-14T14:55:22.244Z,17.30
2022-09-14T14:57:49.798Z,17.33
2022-09-14T15:00:22.168Z,17.19
2022-09-14T15:02:49.101Z,17.14
2022-09-14T15:05:16.571Z,17.06
2022-09-14T15:07:43.082Z,17.00
2022-09-14T15:10:13.969Z,17.09
2022-09-14T15:12:40.475Z,17.02
2022-09-14T15:15:17.878Z,16.90
2022-09-14T15:17:44.577Z,17.02
2022-09-14T15:20:12.105Z,17.21
2022-09-14T15:22:39.138Z,17.47
2022-09-14T15:25:06.801Z,17.53
2022-09-14T15:27:33.191Z,17.51
2022-09-14T15:29:59.732Z,17.61
2022-09-14T15:32:26.337Z,18.08
2022-09-14T15:34:55.505Z,18.04
2022-09-14T15:37:21.882Z,18.01
2022-09-14T15:39:50.533Z,18.10
2022-09-14T15:42:18.374Z,17.99
2022-09-14T15:44:45.031Z,18.04
2022-09-14T15:47:14.607Z,17.96
2022-09-14T15:49:42.378Z,17.79
2022-09-14T15:52:09.910Z,17.95
2022-09-14T15:54:37.770Z,17.85
2022-09-14T15:57:06.302Z,17.96
2022-09-14T15:59:33.288Z,18.02
2022-09-14T16:01:59.747Z,18.10
2022-09-14T16:04:26.729Z,18.10
2022-09-14T16:06:53.265Z,18.10
2022-09-14T16:09:22.346Z,18.12
2022-09-14T16:11:49.519Z,18.05
2022-09-14T16:14:16.217Z,18.04
2022-09-14T16:17:20.642Z,17.83
2022-09-14T16:19:49.515Z,17.83
2022-09-14T16:22:15.945Z,17.74
2022-09-14T16:24:42.372Z,17.61
2022-09-14T16:27:08.718Z,17.81
2022-09-14T16:29:35.142Z,17.89
2022-09-14T16:32:01.813Z,17.86
2022-09-14T16:34:29.647Z,17.95
2022-09-14T16:36:58.558Z,17.86
2022-09-14T16:39:27.816Z,17.86
2022-09-14T16:41:55.666Z,17.89
2022-09-14T16:44:24.429Z,17.89
2022-09-14T16:46:52.158Z,17.96
2022-09-14T16:49:21.354Z,17.98
2022-09-14T16:51:51.316Z,18.01
2022-09-14T16:54:21.763Z,18.01
2022-09-14T16:56:48.652Z,17.85
2022-09-14T16:59:16.564Z,17.91
2022-09-14T17:01:45.191Z,17.77
2022-09-14T17:04:14.760Z,17.77
2022-09-14T17:06:44.011Z,17.72
2022-09-14T17:09:14.362Z,17.67
2022-09-14T17:11:42.179Z,17.74
2022-09-14T17:14:13.014Z,17.68
2022-09-14T17:16:39.600Z,17.64
2022-09-14T17:19:06.166Z,17.64
2022-09-14T17:21:37.928Z,17.55
2022-09-14T17:24:05.802Z,17.46
2022-09-14T17:26:35.171Z,17.33
2022-09-14T17:29:11.034Z,17.43
2022-09-14T17:31:40.476Z,17.40
2022-09-14T17:34:09.011Z,17.46
2022-09-14T17:36:35.498Z,17.50
2022-09-14T17:39:06.764Z,17.44
2022-09-14T17:41:38.497Z,17.46
2022-09-14T17:44:06.517Z,17.34
2022-09-14T17:46:33.416Z,17.23
2022-09-14T17:49:01.071Z,17.27
2022-09-14T17:51:29.251Z,17.20
2022-09-14T17:53:57.794Z,17.23
2022-09-14T17:57:35.983Z,17.07
2022-09-14T18:00:03.597Z,17.27
2022-09-14T18:02:29.937Z,17.07
2022-09-14T18:04:56.340Z,17.06
2022-09-14T18:07:22.707Z,17.06
2022-09-14T18:09:49.310Z,17.13
2022-09-14T18:12:17.698Z,17.13
2022-09-14T18:14:44.194Z,16.95
2022-09-14T18:17:10.645Z,16.92
2022-09-14T18:19:37.063Z,16.83
2022-09-14T18:22:03.506Z,16.86
2022-09-14T18:24:29.950Z,16.76
2022-09-14T18:26:57.290Z,16.73
2022-09-14T18:29:24.111Z,16.68
2022-09-14T18:31:52.025Z,16.51
2022-09-14T18:34:20.736Z,16.49
2022-09-14T18:36:47.254Z,16.41
2022-09-14T18:39:14.212Z,16.42
2022-09-14T18:41:40.723Z,16.54
2022-09-14T18:44:07.184Z,16.48
2022-09-14T18:46:33.607Z,16.37
2022-09-14T18:49:01.663Z,16.27
2022-09-14T18:51:30.623Z,16.41
2022-09-14T18:54:03.633Z,16.49
2022-09-14T18:56:33.221Z,16.45
2022-09-14T18:59:00.776Z,16.28
2022-09-14T19:01:27.561Z,16.35
2022-09-14T19:03:56.119Z,16.47
2022-09-14T19:06:23.280Z,16.21
2022-09-14T19:08:50.124Z,16.37
2022-09-14T19:11:19.913Z,16.24
2022-09-14T19:13:47.496Z,16.34
2022-09-14T19:16:18.661Z,16.21
2022-09-14T19:18:47.066Z,16.24
2022-09-14T19:21:16.160Z,16.20
2022-09-14T19:23:43.186Z,16.42
2022-09-14T19:26:18.635Z,16.14
2022-09-14T19:28:45.646Z,16.07
2022-09-14T19:31:17.549Z,16.11
2022-09-14T19:33:45.729Z,16.14
2022-09-14T19:36:15.355Z,16.17
2022-09-14T19:38:42.210Z,16.07
2022-09-14T19:41:09.410Z,16.14
2022-09-14T19:43:36.679Z,16.11
2022-09-14T19:46:04.232Z,16.07
2022-09-14T19:48:31.529Z,16.04
2022-09-14T19:51:02.723Z,16.09
2022-09-14T19:53:30.399Z,16.10
2022-09-14T19:55:57.018Z,15.86
2022-09-14T19:58:26.137Z,15.82
2022-09-14T20:00:56.958Z,15.76
2022-09-14T20:03:24.017Z,15.87
2022-09-14T20:06:20.891Z,15.89
2022-09-14T20:08:48.708Z,15.87
2022-09-14T20:11:20.508Z,15.90
2022-09-14T20:13:48.423Z,15.94
2022-09-14T20:16:18.312Z,15.86
2022-09-14T20:18:46.922Z,15.90
2022-09-14T20:21:15.874Z,15.85
2022-09-14T20:24:04.295Z,15.77
2022-09-14T20:26:29.996Z,15.86
2022-09-14T20:28:59.871Z,15.79
2022-09-14T20:31:26.926Z,15.80
2022-09-14T20:33:53.859Z,15.72
2022-09-14T20:36:22.376Z,15.83
2022-09-14T20:38:54.043Z,15.80
2022-09-14T20:41:22.628Z,15.73
2022-09-14T20:43:49.201Z,15.65
2022-09-14T20:46:19.790Z,15.77
2022-09-14T20:48:48.039Z,15.70
2022-09-14T20:51:19.949Z,15.73
2022-09-14T20:53:47.655Z,15.65
2022-09-14T20:56:16.906Z,15.58
2022-09-14T20:58:43.793Z,15.62
2022-09-14T21:01:19.208Z,15.63
2022-09-14T21:03:47.457Z,15.69
2022-09-14T21:06:24.891Z,15.72
2022-09-14T21:08:52.206Z,15.58
2022-09-14T21:11:24.462Z,15.58
2022-09-14T21:13:52.762Z,15.70
2022-09-14T21:16:25.880Z,15.62
2022-09-14T21:18:56.002Z,15.73
2022-09-14T21:21:23.015Z,15.69
2022-09-14T21:23:50.385Z,15.63
2022-09-14T21:26:18.471Z,15.74
2022-09-14T21:28:45.345Z,15.80
2022-09-14T21:31:21.357Z,15.79
2022-09-14T21:33:51.268Z,15.83
2022-09-14T21:36:27.068Z,15.87
2022-09-14T21:38:55.738Z,15.82
2022-09-14T21:41:24.711Z,15.73
2022-09-14T21:43:52.129Z,15.85
2022-09-14T21:46:19.116Z,15.83
2022-09-14T21:48:45.840Z,15.85
2022-09-14T21:51:21.457Z,15.69
2022-09-14T21:53:50.489Z,15.58
2022-09-14T21:56:18.129Z,15.61
2022-09-14T21:58:45.056Z,15.62
2022-09-14T22:01:11.876Z,15.67
2022-09-14T22:03:38.924Z,15.76
2022-09-14T22:06:07.975Z,15.80
2022-09-14T22:08:35.378Z,15.86
2022-09-14T22:11:07.499Z,15.86
2022-09-14T22:13:34.499Z,15.76
2022-09-14T22:16:12.342Z,15.79
2022-09-14T22:18:41.862Z,15.85
2022-09-14T22:21:08.967Z,15.82
2022-09-14T22:23:35.636Z,15.76
2022-09-14T22:26:09.104Z,15.77
2022-09-14T22:28:42.529Z,15.77
2022-09-14T22:31:09.291Z,15.58
2022-09-14T22:33:36.179Z,15.63
2022-09-14T22:36:04.082Z,15.63
2022-09-14T22:38:34.238Z,15.66
2022-09-14T22:41:11.774Z,15.58
2022-09-14T22:43:39.600Z,15.67
2022-09-14T22:46:07.696Z,15.59
2022-09-14T22:48:34.483Z,15.72
2022-09-14T22:51:01.662Z,15.61
2022-09-14T22:53:29.411Z,15.67
2022-09-14T22:55:56.904Z,15.58
2022-09-14T22:58:26.311Z,15.43
2022-09-14T23:00:53.387Z,15.46
2022-09-14T23:03:20.341Z,15.34
2022-09-14T23:05:59.833Z,15.39
2022-09-14T23:08:27.160Z,15.42
2022-09-14T23:10:54.992Z,15.35
2022-09-14T23:13:22.101Z,15.30
2022-09-14T23:15:48.913Z,15.34
2022-09-14T23:18:15.561Z,15.38
2022-09-14T23:21:05.515Z,15.32
2022-09-14T23:23:32.300Z,15.22
2022-09-14T23:26:06.918Z,15.18
2022-09-14T23:28:33.781Z,15.14
2022-09-14T23:31:00.967Z,15.04
2022-09-14T23:33:28.735Z,15.08
2022-09-14T23:35:55.754Z,15.17
2022-09-14T23:38:23.011Z,15.21
2022-09-14T23:40:49.878Z,15.22
2022-09-14T23:43:18.133Z,15.27
2022-09-14T23:45:46.003Z,15.22
2022-09-14T23:48:14.217Z,15.27
2022-09-14T23:50:40.613Z,15.21
2022-09-14T23:53:07.365Z,15.18
2022-09-14T23:55:33.944Z,15.20
